ACK weather

Nantucket Memorial Airport
Nantucket, Massachusetts, United States

Public forecast

Using degrees Fahrenheit for public forecast. Weather courtesy of forecast.io.

Current aviation weather report (METAR) for Nantucket Memorial Airport

Retrieved 2020/02/27 16:31 UTC (22 minutes ago):

KACK 271631Z 24024G38KT 9SM FEW015 08/04 A2935 RMK AO2 PK WND 24038/1622 T00830039

Aviation forecast (TAF) for Nantucket Memorial Airport

Forecast is more than 6 hours old.

Retrieved 2020/02/27 06:40 UTC (10 hours ago):

TAF KACK 270538Z 2706/2806 08012G20KT 1/2SM FG VCSH OVC003 FM270800 10018G26KT 1/2SM RA FG OVC003 WS020/13045KT FM271000 12021G28KT 1SM +RA BR OVC003 FM271200 16018G27KT 1/2SM -RA FG OVC003 WS020/20040KT FM271500 21021G35KT 3SM BR VCSH OVC010 FM271700 24025G40KT P6SM SCT250